»·PEaware :: N360BG KSUN-KYKM

N360BG :: KSUN-KYKM

FLIGHT INFORMATION

Flight Status: Arrived
Operator: Privately registered:
United States
More flights under this callsign
Pilot: Brandon G. (13)
Aircraft: BOEING 757-200
(B752)
More flights by this aircraft type
Origin: KSUN Friedman Meml
United States
Destination: KYKM Yakima Air Term/Mcallister
United States
More flights between these airports :: More routes between these airports
Route: +HLE YKM
File this flight plan on PilotEdge
Remarks:
Altitude:
(Current/Filed)
34,000ft
Speed:
(Current/Filed)
425kts
Departed: 01-Dec-17 04:37 PM
Arrived: 01-Dec-17 05:38 PM
Distance/Time
Traveled:
323nm/1:01
Distance/Time
To Go:
Arrived

Flight Plot

Page will automatically refresh every two minutes.

Flight plan parsing failed; only flown route is shown


Map Options




Map Legend


Flown Route
Filed Route
Departure Airport
Arrival Airport
Navaid (VOR, NDB)
Fix

Horizontal Profiles

Position Reports

Time Latitude Longitude Heading Altitude Ground
Speed
01-Dec-17 16:14 43.505424 -114.299783 115 5305ft 0kts
01-Dec-17 16:15 43.505424 -114.299783 115 5305ft 0kts
01-Dec-17 16:16 43.505424 -114.299783 115 5305ft 0kts
01-Dec-17 16:17 43.505424 -114.299783 115 5305ft 0kts
01-Dec-17 16:18 43.505424 -114.299783 115 5305ft 0kts
01-Dec-17 16:19 43.505424 -114.299783 115 5305ft 0kts
01-Dec-17 16:20 43.505424 -114.299783 115 5305ft 0kts
01-Dec-17 16:21 43.505424 -114.299783 115 5305ft 0kts
01-Dec-17 16:22 43.505424 -114.299783 115 5305ft 0kts
01-Dec-17 16:23 43.505424 -114.299783 115 5305ft 0kts
01-Dec-17 16:24 43.505424 -114.299783 115 5305ft 0kts
01-Dec-17 16:25 43.505424 -114.299783 115 5305ft 0kts
01-Dec-17 16:26 43.505424 -114.299783 115 5305ft 0kts
01-Dec-17 16:27 43.505424 -114.299783 115 5305ft 0kts
01-Dec-17 16:28 43.505424 -114.299783 115 5305ft 0kts
01-Dec-17 16:29 43.505424 -114.299783 115 5305ft 0kts
01-Dec-17 16:30 43.505424 -114.299783 115 5305ft 0kts
01-Dec-17 16:31 43.505424 -114.299783 115 5305ft 0kts
01-Dec-17 16:32 43.505499 -114.299555 32 5305ft 0kts
01-Dec-17 16:33 43.506500 -114.299679 325 5309ft 14kts
01-Dec-17 16:34 43.509785 -114.302874 324 5319ft 12kts
01-Dec-17 16:35 43.511394 -114.304396 342 5320ft 0kts
01-Dec-17 16:36 43.511394 -114.304396 342 5320ft 0kts
01-Dec-17 16:37 43.511394 -114.304396 342 5320ft 0kts
01-Dec-17 16:38 43.511394 -114.304396 342 5320ft 0kts
01-Dec-17 16:39 43.511394 -114.304396 342 5320ft 0kts
01-Dec-17 16:40 43.511394 -114.304396 342 5320ft 0kts
01-Dec-17 16:41 43.511764 -114.304311 36 5320ft 5kts
01-Dec-17 16:42 43.501944 -114.293603 144 5413ft 161kts
01-Dec-17 16:43 43.447021 -114.271108 172 8211ft 258kts
01-Dec-17 16:44 43.371941 -114.253294 178 11863ft 308kts
01-Dec-17 16:45 43.295536 -114.316324 244 14844ft 366kts
01-Dec-17 16:46 43.299638 -114.451123 292 19186ft 381kts
01-Dec-17 16:47 43.366424 -114.567302 303 22665ft 399kts
01-Dec-17 16:48 43.435253 -114.683705 302 25663ft 408kts
01-Dec-17 16:49 43.506289 -114.802045 302 29089ft 398kts
01-Dec-17 16:50 43.574087 -114.915403 301 32465ft 376kts
01-Dec-17 16:51 43.637831 -115.022425 300 34137ft 342kts
01-Dec-17 16:52 43.700941 -115.129372 301 34208ft 385kts
01-Dec-17 16:53 43.769304 -115.245075 300 34180ft 395kts
01-Dec-17 16:54 43.838254 -115.362765 300 34159ft 395kts
01-Dec-17 16:55 43.907018 -115.480266 300 34147ft 395kts
01-Dec-17 16:56 43.975230 -115.597245 300 34145ft 395kts
01-Dec-17 16:57 44.042957 -115.713802 300 34161ft 394kts
01-Dec-17 16:58 44.098365 -115.809132 300 34161ft 394kts
01-Dec-17 16:59 44.176630 -115.944358 300 34153ft 394kts
01-Dec-17 17:00 44.244447 -116.062807 300 34128ft 393kts
01-Dec-17 17:01 44.301026 -116.161670 300 34107ft 394kts
01-Dec-17 17:02 44.369012 -116.280703 300 34095ft 394kts
01-Dec-17 17:03 44.436724 -116.400011 300 34092ft 394kts
01-Dec-17 17:04 44.504169 -116.519484 300 34123ft 394kts
01-Dec-17 17:05 44.571610 -116.639773 300 34126ft 394kts
01-Dec-17 17:06 44.637414 -116.757496 299 34143ft 394kts
01-Dec-17 17:07 44.704526 -116.877643 299 34153ft 394kts
01-Dec-17 17:08 44.771931 -116.998818 299 34138ft 402kts
01-Dec-17 17:09 44.840585 -117.122532 299 34125ft 402kts
01-Dec-17 17:10 44.908739 -117.246180 299 34125ft 403kts
01-Dec-17 17:11 44.976624 -117.370094 299 34123ft 402kts
01-Dec-17 17:12 45.044527 -117.495198 299 34120ft 404kts
01-Dec-17 17:13 45.111065 -117.617796 299 34114ft 405kts
01-Dec-17 17:14 45.178432 -117.742318 298 34107ft 405kts
01-Dec-17 17:15 45.246324 -117.867895 298 34093ft 404kts
01-Dec-17 17:16 45.314008 -117.993687 298 33944ft 399kts
01-Dec-17 17:17 45.381202 -118.119170 298 32075ft 402kts
01-Dec-17 17:18 45.448818 -118.246577 298 31427ft 408kts
01-Dec-17 17:19 45.516249 -118.374621 299 30255ft 406kts
01-Dec-17 17:20 45.583513 -118.502435 299 28510ft 411kts
01-Dec-17 17:21 45.652318 -118.632713 299 26690ft 412kts
01-Dec-17 17:22 45.718185 -118.758547 299 24957ft 404kts
01-Dec-17 17:23 45.784041 -118.885719 299 23186ft 397kts
01-Dec-17 17:24 45.848610 -119.010981 300 21283ft 390kts
01-Dec-17 17:25 45.912071 -119.133706 300 19488ft 382kts
01-Dec-17 17:26 45.974188 -119.254778 301 17693ft 374kts
01-Dec-17 17:27 46.031893 -119.368101 301 15981ft 367kts
01-Dec-17 17:28 46.091429 -119.484787 302 14180ft 358kts
01-Dec-17 17:29 46.146909 -119.594046 302 12219ft 342kts
01-Dec-17 17:30 46.199181 -119.697233 302 11029ft 318kts
01-Dec-17 17:31 46.248005 -119.794061 302 10933ft 273kts
01-Dec-17 17:32 46.303215 -119.855888 335 10141ft 263kts
01-Dec-17 17:33 46.367739 -119.898167 331 8380ft 253kts
01-Dec-17 17:34 46.429427 -119.942131 331 6493ft 247kts
01-Dec-17 17:35 46.454943 -120.019712 241 6260ft 253kts
01-Dec-17 17:36 46.446350 -120.107672 308 6267ft 245kts
01-Dec-17 17:37 46.479270 -120.193597 293 5974ft 245kts
01-Dec-17 17:38 46.502504 -120.281771 291 4720ft 217kts
01-Dec-17 17:39 46.521917 -120.358149 291 3542ft 192kts
01-Dec-17 17:40 46.537272 -120.419227 291 2770ft 145kts
01-Dec-17 17:41 46.550575 -120.471746 290 1924ft 133kts
01-Dec-17 17:42 46.562433 -120.519054 290 1261ft 121kts
01-Dec-17 17:43 46.569832 -120.548802 290 1085ft 23kts
01-Dec-17 17:44 46.570967 -120.548619 99 1085ft 3kts
01-Dec-17 17:45 46.571357 -120.547762 197 1084ft 0kts
01-Dec-17 17:46 46.571357 -120.547762 197 1084ft 0kts
01-Dec-17 17:47 46.571357 -120.547762 197 1084ft 0kts
01-Dec-17 17:48 46.571357 -120.547762 197 1084ft 0kts
01-Dec-17 17:49 46.571357 -120.547762 197 1084ft 0kts
01-Dec-17 17:50 46.571357 -120.547762 197 1084ft 0kts
01-Dec-17 17:51 46.571357 -120.547762 197 1084ft 0kts
01-Dec-17 17:52 46.571357 -120.547762 197 1084ft 0kts

Navigation Log

Ident Type
Flight plan parsing failed, navigation log unavailable